East Palmyra, New York
Current Conditions -  °F | °C
As of 12:20 AM on Tuesday 27 Jan 2015 (Local Time) from KROC Reporting Station
Light Snow Light Snow  
Wind Chill:   Ceiling: 1100
Heat Index: 20°   Visibility: 2mi
Dew Point: 16°   Wind: 10mph
Humidity: 85%   Direction: 60°ENE
Pressure: 29.93"   Gusts: NA
Location:  43.0687°N, 77.0977°W
Report Text: KROC 270520Z 06009KT 2SM R04/6000VP6000FT -SN BR OVC011 M07/M09 A2993 RMK AO2 CIG 009V014 P0000 T10671089
Loading
Personal Weather Stations






























Interactive Weather Map New forecast layout! Learn more

10-Day Weather Forecast

Advertisements
Track Severe Weather on mobile